Time;durP1;ratioP1;P1;durP2;ratioP2;P2;SDS_P1;SDS_P2;PMS_P1;PMS_P2;Temp;Humidity;BMP_temperature;BMP_pressure;BME280_temperature;BME280_humidity;BME280_pressure;Samples;Min_cycle;Max_cycle;Signal;HPM_P1;HPM_P2
2024/03/31 00:01:51;;;;;;;5.00;2.97;;;24.30;71.50;;;;;;5075409;28;20236;-71
2024/03/31 00:04:19;;;;;;;4.03;2.80;;;24.30;70.50;;;;;;5073698;28;20179;-71
2024/03/31 00:06:46;;;;;;;2.50;2.30;;;24.40;69.90;;;;;;5072418;28;20236;-70
2024/03/31 00:09:13;;;;;;;3.80;2.50;;;24.40;70.20;;;;;;5071704;28;20184;-70
2024/03/31 00:11:40;;;;;;;2.83;2.27;;;24.40;70.20;;;;;;5076821;28;20195;-70
2024/03/31 00:14:08;;;;;;;5.13;2.17;;;24.60;69.40;;;;;;5075306;28;20186;-70
2024/03/31 00:16:35;;;;;;;3.53;2.40;;;24.70;68.70;;;;;;5073655;28;20282;-70
2024/03/31 00:19:02;;;;;;;2.90;1.80;;;24.80;69.20;;;;;;5073418;28;20186;-71
2024/03/31 00:21:29;;;;;;;3.50;2.10;;;24.70;68.90;;;;;;5076897;28;20546;-71
2024/03/31 00:23:57;;;;;;;3.03;1.63;;;24.70;67.50;;;;;;5075170;28;20664;-72
2024/03/31 00:26:24;;;;;;;2.33;1.60;;;24.60;68.70;;;;;;5073555;28;20675;-72
2024/03/31 00:28:51;;;;;;;8.83;2.33;;;24.80;67.90;;;;;;5074893;28;20189;-72
2024/03/31 00:31:18;;;;;;;2.60;1.77;;;25.00;67.10;;;;;;5070722;28;20691;-72
2024/03/31 00:33:49;;;;;;;5.80;2.03;;;24.90;67.00;;;;;;5069471;28;20538;-70
2024/03/31 00:36:16;;;;;;;1.93;1.80;;;25.10;67.10;;;;;;5074857;28;20210;-72
2024/03/31 00:38:44;;;;;;;3.33;2.13;;;25.30;67.20;;;;;;5071340;28;20717;-71
2024/03/31 00:41:11;;;;;;;2.67;1.73;;;25.30;64.60;;;;;;5070717;28;20186;-72
2024/03/31 00:43:38;;;;;;;2.43;1.90;;;25.40;64.80;;;;;;5074207;28;20536;-71
2024/03/31 00:46:07;;;;;;;5.30;2.10;;;25.30;63.80;;;;;;5071264;28;20171;-70
2024/03/31 00:48:37;;;;;;;3.50;1.97;;;25.40;63.60;;;;;;5075584;28;20194;-71
2024/03/31 00:51:04;;;;;;;3.97;2.10;;;25.50;63.20;;;;;;5076791;28;20599;-71
2024/03/31 00:53:32;;;;;;;4.43;2.00;;;25.40;63.90;;;;;;5076733;28;20221;-72
2024/03/31 00:55:59;;;;;;;4.17;2.20;;;25.80;63.30;;;;;;5073140;28;20221;-72
2024/03/31 00:58:28;;;;;;;4.17;2.30;;;25.90;62.50;;;;;;5079153;28;20224;-71
2024/03/31 01:00:56;;;;;;;2.23;1.80;;;25.80;61.30;;;;;;5077958;28;20191;-72
2024/03/31 01:03:30;;;;;;;4.67;2.23;;;25.80;60.80;;;;;;5075925;28;20187;-72
2024/03/31 01:06:00;;;;;;;3.27;1.93;;;25.80;60.50;;;;;;5075736;28;20285;-70
2024/03/31 01:08:27;;;;;;;3.47;2.10;;;26.00;60.90;;;;;;5074245;28;20186;-71
2024/03/31 01:10:55;;;;;;;3.73;2.10;;;26.20;60.50;;;;;;5074449;28;20699;-71
2024/03/31 01:13:23;;;;;;;9.37;2.37;;;26.30;59.10;;;;;;5080128;28;20248;-71
2024/03/31 01:15:51;;;;;;;3.20;1.80;;;26.10;60.90;;;;;;5073218;28;20211;-71
2024/03/31 01:18:18;;;;;;;2.70;1.57;;;26.10;61.80;;;;;;5074134;28;20711;-71
2024/03/31 01:20:45;;;;;;;4.80;2.13;;;26.10;58.20;;;;;;5074706;28;20180;-71
2024/03/31 01:23:16;;;;;;;3.40;2.23;;;26.00;60.00;;;;;;5067067;28;20200;-70
2024/03/31 01:25:43;;;;;;;6.87;2.20;;;26.10;60.50;;;;;;5071894;28;20236;-72
2024/03/31 01:28:10;;;;;;;3.97;2.20;;;26.10;60.60;;;;;;5074766;28;20175;-72
2024/03/31 01:30:38;;;;;;;4.97;2.27;;;26.40;59.70;;;;;;5072698;28;20183;-72
2024/03/31 01:33:06;;;;;;;2.73;2.13;;;26.50;58.50;;;;;;5072213;28;20175;-72
2024/03/31 01:35:33;;;;;;;3.90;2.20;;;26.80;57.50;;;;;;5069927;28;20573;-71
2024/03/31 01:38:00;;;;;;;6.23;2.73;;;27.10;56.60;;;;;;5073704;28;20359;-71
2024/03/31 01:40:28;;;;;;;3.03;2.60;;;27.20;55.60;;;;;;5072014;28;20186;-71
2024/03/31 01:42:55;;;;;;;4.50;2.30;;;27.40;56.20;;;;;;5076526;28;20184;-71
2024/03/31 01:45:22;;;;;;;4.67;2.47;;;27.70;55.70;;;;;;5067664;28;20191;-71
2024/03/31 01:47:49;;;;;;;3.80;2.60;;;27.90;55.40;;;;;;5075550;28;20182;-72
2024/03/31 01:50:17;;;;;;;4.33;3.03;;;28.00;55.20;;;;;;5076174;28;20226;-73
2024/03/31 01:52:44;;;;;;;4.17;2.50;;;28.20;53.90;;;;;;5076009;28;20181;-73
2024/03/31 01:55:12;;;;;;;3.83;2.50;;;27.80;53.80;;;;;;5078546;28;20681;-71
2024/03/31 01:57:39;;;;;;;4.43;2.60;;;27.80;54.20;;;;;;5061574;28;20213;-73
2024/03/31 02:00:07;;;;;;;6.03;2.83;;;27.90;53.70;;;;;;5073562;28;20193;-72
2024/03/31 02:02:36;;;;;;;3.23;2.40;;;27.90;54.90;;;;;;5076236;28;20184;-69
2024/03/31 02:05:04;;;;;;;5.43;3.37;;;27.70;53.50;;;;;;5078966;28;20237;-71
2024/03/31 02:07:31;;;;;;;3.90;3.23;;;27.60;55.90;;;;;;5076202;28;20308;-72
2024/03/31 02:09:58;;;;;;;5.87;3.20;;;28.20;54.50;;;;;;5073030;28;20670;-73
2024/03/31 02:12:26;;;;;;;4.27;2.97;;;28.20;53.90;;;;;;5075563;28;20171;-73
2024/03/31 02:14:53;;;;;;;4.53;2.90;;;28.30;54.70;;;;;;5073190;28;20211;-72
2024/03/31 02:17:21;;;;;;;4.67;2.87;;;28.10;54.20;;;;;;5074189;28;20220;-72
2024/03/31 02:19:49;;;;;;;3.60;2.80;;;27.70;55.10;;;;;;5073270;28;20533;-73
2024/03/31 02:22:20;;;;;;;4.23;2.70;;;28.20;54.10;;;;;;5078629;28;20186;-73
2024/03/31 02:24:47;;;;;;;4.40;3.00;;;28.10;53.90;;;;;;5068135;28;20240;-72
2024/03/31 02:27:14;;;;;;;3.73;2.80;;;28.60;53.20;;;;;;5077775;28;20552;-71
2024/03/31 02:29:42;;;;;;;5.23;2.90;;;29.00;52.60;;;;;;5070088;28;20587;-72
2024/03/31 02:32:09;;;;;;;3.53;2.40;;;29.40;51.90;;;;;;5080366;28;20187;-70
2024/03/31 02:34:37;;;;;;;4.33;3.03;;;29.50;50.20;;;;;;5068387;28;20207;-73
2024/03/31 02:37:04;;;;;;;4.93;2.93;;;29.10;51.60;;;;;;5065128;28;20222;-73
2024/03/31 02:39:32;;;;;;;9.13;3.10;;;28.90;52.10;;;;;;5070459;28;20598;-70
2024/03/31 02:41:59;;;;;;;3.17;2.60;;;29.20;51.60;;;;;;5068134;28;20240;-71
2024/03/31 02:44:26;;;;;;;5.70;2.63;;;29.30;51.10;;;;;;5071413;28;20192;-72
2024/03/31 02:46:53;;;;;;;4.83;2.90;;;29.50;51.20;;;;;;5075329;28;20179;-72
2024/03/31 02:49:21;;;;;;;4.70;3.20;;;29.50;51.70;;;;;;5071376;28;20186;-73
2024/03/31 02:51:48;;;;;;;4.17;2.93;;;29.50;51.80;;;;;;5078900;28;20179;-73
2024/03/31 02:54:16;;;;;;;4.43;3.03;;;29.40;52.10;;;;;;5072861;28;20186;-75
2024/03/31 02:56:43;;;;;;;5.00;3.33;;;29.70;52.20;;;;;;5070920;28;20240;-71
2024/03/31 02:59:11;;;;;;;4.87;3.17;;;29.60;52.20;;;;;;5054198;28;20191;-72
2024/03/31 03:01:38;;;;;;;8.27;3.20;;;28.90;53.40;;;;;;5075374;28;20194;-71
2024/03/31 03:04:05;;;;;;;7.37;3.10;;;28.70;55.70;;;;;;5074736;28;20551;-70
2024/03/31 03:06:33;;;;;;;8.67;3.23;;;28.80;56.30;;;;;;5073235;28;20546;-73
2024/03/31 03:09:00;;;;;;;6.43;3.03;;;28.90;56.10;;;;;;5074243;28;20286;-74
2024/03/31 03:11:27;;;;;;;6.80;3.03;;;28.70;56.90;;;;;;5078731;28;20175;-73
2024/03/31 03:13:55;;;;;;;6.60;3.10;;;28.50;57.70;;;;;;5074186;28;20214;-75
2024/03/31 03:16:22;;;;;;;6.90;2.90;;;28.30;58.10;;;;;;5075768;28;20219;-72
2024/03/31 03:18:51;;;;;;;7.53;3.10;;;28.60;57.80;;;;;;5074052;28;20218;-73
2024/03/31 03:21:18;;;;;;;7.20;3.20;;;28.90;57.50;;;;;;5077777;28;20642;-71
2024/03/31 03:23:46;;;;;;;5.33;2.60;;;28.80;57.80;;;;;;5075079;28;20202;-73
2024/03/31 03:26:13;;;;;;;9.20;2.50;;;28.40;58.70;;;;;;5076940;28;20199;-71
2024/03/31 03:28:41;;;;;;;8.20;2.60;;;28.30;58.80;;;;;;5073038;28;20245;-71
2024/03/31 03:31:08;;;;;;;6.30;2.60;;;28.20;60.00;;;;;;5074307;28;20195;-71
2024/03/31 03:33:35;;;;;;;3.97;2.30;;;28.00;60.60;;;;;;5071863;28;20601;-76
2024/03/31 03:36:06;;;;;;;9.40;2.60;;;27.90;60.30;;;;;;5072150;28;20246;-73
2024/03/31 03:38:34;;;;;;;4.97;2.87;;;28.00;60.10;;;;;;5069573;28;20542;-72
2024/03/31 03:41:01;;;;;;;6.47;2.37;;;28.40;59.80;;;;;;5070703;28;20187;-75
2024/03/31 03:43:32;;;;;;;4.10;2.23;;;28.70;58.40;;;;;;5074835;28;20187;-72
2024/03/31 03:46:01;;;;;;;5.20;2.70;;;28.30;60.00;;;;;;5074723;28;20641;-72
2024/03/31 03:48:29;;;;;;;6.93;2.83;;;29.00;57.40;;;;;;5075337;28;20260;-74
2024/03/31 03:50:56;;;;;;;3.53;2.30;;;28.70;58.20;;;;;;5078260;28;20624;-73
2024/03/31 03:53:23;;;;;;;4.33;2.30;;;28.60;58.50;;;;;;5078116;28;20203;-71
2024/03/31 03:55:50;;;;;;;6.43;2.80;;;28.40;59.20;;;;;;5077155;28;20679;-74
2024/03/31 03:58:18;;;;;;;5.67;2.67;;;28.60;58.20;;;;;;5077836;28;20171;-70
2024/03/31 04:00:45;;;;;;;4.33;2.40;;;28.60;58.60;;;;;;5076454;28;20210;-70
2024/03/31 04:03:12;;;;;;;5.43;2.13;;;28.00;59.20;;;;;;5076456;28;20207;-70
2024/03/31 04:05:41;;;;;;;4.03;2.73;;;27.60;60.90;;;;;;5075194;28;20202;-71
2024/03/31 04:08:09;;;;;;;5.43;2.40;;;27.60;61.70;;;;;;5060145;28;20220;-71
2024/03/31 04:10:40;;;;;;;6.63;2.63;;;27.70;61.30;;;;;;5074392;28;20202;-71
2024/03/31 04:13:07;;;;;;;4.57;3.10;;;27.90;59.80;;;;;;5076935;28;20882;-72
2024/03/31 04:15:40;;;;;;;3.97;2.30;;;27.80;61.30;;;;;;5079158;28;20210;-75
2024/03/31 04:18:08;;;;;;;4.63;2.30;;;28.10;59.70;;;;;;5091359;28;20183;-73
2024/03/31 04:20:44;;;;;;;6.37;2.57;;;27.40;61.30;;;;;;5073625;28;20183;-75
2024/03/31 04:23:12;;;;;;;5.20;2.80;;;27.10;62.70;;;;;;5077792;28;20187;-73
2024/03/31 04:25:39;;;;;;;6.83;3.20;;;26.90;62.50;;;;;;5077184;28;20206;-70
2024/03/31 04:28:07;;;;;;;7.40;2.77;;;26.70;63.80;;;;;;5079363;28;20179;-73
2024/03/31 04:30:45;;;;;;;5.53;2.30;;;27.30;62.00;;;;;;5074287;28;20175;-72
2024/03/31 04:33:12;;;;;;;6.47;2.83;;;27.80;60.50;;;;;;5077451;28;20784;-71
2024/03/31 04:35:41;;;;;;;5.80;3.00;;;28.30;59.00;;;;;;5075628;28;20222;-72
2024/03/31 04:38:09;;;;;;;6.83;3.00;;;28.30;58.80;;;;;;5078083;28;20308;-71
2024/03/31 04:40:36;;;;;;;3.87;2.40;;;27.60;61.30;;;;;;5082170;28;20762;-71
2024/03/31 04:43:04;;;;;;;6.20;2.70;;;27.20;62.50;;;;;;5077376;28;20171;-70
2024/03/31 04:45:32;;;;;;;7.67;2.77;;;26.90;63.50;;;;;;5082250;28;20634;-72
2024/03/31 04:48:03;;;;;;;3.73;2.43;;;27.00;63.50;;;;;;5078381;28;20191;-73
2024/03/31 04:50:30;;;;;;;5.53;3.10;;;26.70;64.30;;;;;;5082468;28;20189;-74
2024/03/31 04:52:58;;;;;;;5.00;2.93;;;26.70;65.40;;;;;;5079530;28;20175;-73
2024/03/31 04:55:25;;;;;;;7.00;2.80;;;27.00;64.30;;;;;;5082258;28;20229;-72
2024/03/31 04:57:53;;;;;;;4.53;2.60;;;27.00;64.00;;;;;;5095138;28;20626;-71
2024/03/31 05:00:20;;;;;;;5.97;3.27;;;26.80;65.00;;;;;;5076021;28;20195;-72
2024/03/31 05:02:51;;;;;;;7.67;2.83;;;26.80;65.70;;;;;;5075751;28;20194;-72
2024/03/31 05:05:18;;;;;;;4.80;3.10;;;27.10;63.80;;;;;;5075839;28;20178;-72
2024/03/31 05:07:45;;;;;;;5.33;3.33;;;27.30;63.90;;;;;;5079418;28;20183;-71
2024/03/31 05:10:13;;;;;;;3.33;2.10;;;27.30;62.90;;;;;;5061908;28;20175;-72
2024/03/31 05:12:40;;;;;;;5.67;2.63;;;26.90;63.40;;;;;;5060331;28;20187;-71
2024/03/31 05:15:08;;;;;;;3.43;1.70;;;27.00;64.00;;;;;;5080043;28;20208;-73
2024/03/31 05:17:35;;;;;;;3.37;2.10;;;26.50;65.00;;;;;;5076593;28;20266;-73
2024/03/31 05:20:03;;;;;;;5.23;2.23;;;26.60;65.20;;;;;;5074427;28;20235;-72
2024/03/31 05:22:30;;;;;;;4.43;2.60;;;26.60;63.80;;;;;;5076672;28;20377;-72
2024/03/31 05:24:58;;;;;;;3.50;2.20;;;26.40;64.50;;;;;;5080441;28;20218;-73
2024/03/31 05:27:25;;;;;;;9.57;2.37;;;26.60;65.20;;;;;;5076101;28;20179;-71
2024/03/31 05:29:52;;;;;;;3.10;2.30;;;26.70;64.10;;;;;;5078886;28;20179;-73
2024/03/31 05:32:19;;;;;;;3.83;2.23;;;26.60;63.70;;;;;;5078922;28;20269;-73
2024/03/31 05:34:47;;;;;;;8.77;2.40;;;26.80;62.90;;;;;;5075328;28;20208;-72
2024/03/31 05:37:14;;;;;;;4.93;2.30;;;27.20;62.10;;;;;;5079296;28;20190;-70
2024/03/31 05:39:41;;;;;;;2.47;1.80;;;27.10;61.30;;;;;;5077952;28;20276;-71
2024/03/31 05:42:09;;;;;;;3.70;2.10;;;26.90;62.40;;;;;;5077178;28;20193;-71
2024/03/31 05:44:36;;;;;;;5.30;2.20;;;26.80;63.70;;;;;;5078368;28;20251;-73
2024/03/31 05:47:04;;;;;;;3.87;2.37;;;26.30;64.30;;;;;;5084306;28;20186;-71
2024/03/31 05:49:31;;;;;;;4.23;2.70;;;26.20;64.10;;;;;;5077547;28;20187;-72
2024/03/31 05:51:58;;;;;;;6.53;2.33;;;26.30;64.30;;;;;;5084103;28;20538;-71
2024/03/31 05:54:25;;;;;;;5.00;2.67;;;26.30;65.60;;;;;;5077546;28;20626;-71
2024/03/31 05:56:53;;;;;;;4.23;2.70;;;26.00;66.50;;;;;;5081818;28;20270;-71
2024/03/31 05:59:20;;;;;;;7.53;3.00;;;25.90;67.30;;;;;;5080052;28;20182;-70
2024/03/31 06:01:47;;;;;;;5.87;2.90;;;26.30;67.30;;;;;;5082569;28;20214;-74
2024/03/31 06:04:14;;;;;;;5.63;3.03;;;26.30;66.50;;;;;;5073049;28;20218;-72
2024/03/31 06:06:42;;;;;;;4.23;2.70;;;26.50;65.80;;;;;;5069812;28;20183;-71
2024/03/31 06:09:09;;;;;;;3.73;2.30;;;26.60;65.50;;;;;;5072917;28;20191;-72
2024/03/31 06:11:36;;;;;;;5.73;2.80;;;27.00;63.20;;;;;;5077450;28;20719;-72
2024/03/31 06:14:04;;;;;;;3.10;1.90;;;26.90;62.70;;;;;;5076808;28;20166;-73
2024/03/31 06:16:31;;;;;;;4.30;1.97;;;26.60;62.00;;;;;;5071841;28;20246;-70
2024/03/31 06:18:58;;;;;;;3.07;2.20;;;26.70;62.30;;;;;;5080008;28;20281;-71
2024/03/31 06:21:25;;;;;;;3.20;2.30;;;26.70;63.30;;;;;;5078645;28;20520;-70
2024/03/31 06:23:53;;;;;;;4.00;2.50;;;26.80;63.80;;;;;;5079508;28;20225;-70
2024/03/31 06:26:20;;;;;;;4.97;2.93;;;26.90;63.30;;;;;;5071726;28;20221;-71
2024/03/31 06:28:47;;;;;;;4.93;2.63;;;26.80;63.90;;;;;;5078033;28;20267;-71
2024/03/31 06:31:15;;;;;;;4.43;2.70;;;26.80;64.10;;;;;;5074512;28;20175;-72
2024/03/31 06:33:43;;;;;;;5.67;2.47;;;26.80;63.50;;;;;;5079724;28;20185;-73
2024/03/31 06:36:10;;;;;;;7.57;2.53;;;27.40;62.10;;;;;;5071675;28;20214;-71
2024/03/31 06:38:38;;;;;;;5.47;2.20;;;27.60;62.10;;;;;;5075122;28;20267;-72
2024/03/31 06:41:05;;;;;;;6.23;2.70;;;27.10;62.80;;;;;;5070540;28;20193;-71
2024/03/31 06:43:32;;;;;;;3.97;2.57;;;27.00;62.10;;;;;;5074814;28;20270;-72
2024/03/31 06:46:00;;;;;;;5.40;2.57;;;26.60;63.00;;;;;;5071921;28;20190;-73
2024/03/31 06:48:27;;;;;;;6.60;3.20;;;26.40;64.50;;;;;;5074418;28;20171;-73
2024/03/31 06:50:57;;;;;;;4.13;2.50;;;26.20;66.00;;;;;;5076216;28;20183;-72
2024/03/31 06:53:24;;;;;;;4.63;2.73;;;25.60;68.30;;;;;;5077182;28;20312;-72
2024/03/31 06:55:51;;;;;;;5.43;2.27;;;25.10;66.90;;;;;;5075831;28;20220;-72
2024/03/31 06:58:19;;;;;;;4.33;3.00;;;24.80;66.80;;;;;;5079365;28;20187;-72
2024/03/31 07:00:46;;;;;;;5.10;2.43;;;24.90;67.50;;;;;;5072414;28;20183;-73
2024/03/31 07:03:13;;;;;;;3.77;2.50;;;24.80;66.30;;;;;;5075901;28;20273;-70
2024/03/31 07:05:40;;;;;;;4.20;2.10;;;24.90;66.00;;;;;;5082255;28;20194;-71
2024/03/31 07:08:08;;;;;;;3.40;2.10;;;24.70;66.90;;;;;;5076812;28;20269;-72
2024/03/31 07:10:35;;;;;;;4.03;2.50;;;24.80;66.70;;;;;;5074514;28;20175;-72
2024/03/31 07:13:02;;;;;;;4.10;2.13;;;24.90;66.90;;;;;;5079113;28;20178;-72
2024/03/31 07:15:29;;;;;;;5.40;2.40;;;24.80;67.30;;;;;;5074104;28;20211;-71
2024/03/31 07:18:08;;;;;;;4.57;2.70;;;24.50;67.50;;;;;;5078425;28;20182;-72
2024/03/31 07:20:37;;;;;;;7.20;2.27;;;24.30;68.00;;;;;;5069613;28;20305;-74
2024/03/31 07:23:05;;;;;;;10.97;2.73;;;24.20;69.70;;;;;;5075420;28;20202;-73
2024/03/31 07:25:34;;;;;;;6.77;2.47;;;24.20;70.60;;;;;;5071119;28;20609;-70
2024/03/31 07:28:01;;;;;;;5.03;2.67;;;24.00;71.20;;;;;;5080251;28;20186;-71
2024/03/31 07:30:29;;;;;;;6.10;2.87;;;23.80;72.40;;;;;;5078874;28;20171;-72
2024/03/31 07:32:56;;;;;;;4.53;2.20;;;23.70;73.30;;;;;;5078804;28;20251;-73
2024/03/31 07:35:23;;;;;;;5.27;2.40;;;23.60;74.00;;;;;;5078389;28;20210;-72
2024/03/31 07:37:51;;;;;;;5.50;2.80;;;23.40;75.20;;;;;;5081859;28;20249;-72
2024/03/31 07:40:18;;;;;;;4.77;2.47;;;23.40;75.90;;;;;;5079370;28;20194;-72
2024/03/31 07:42:45;;;;;;;4.80;2.60;;;23.30;76.10;;;;;;5081392;28;20558;-72
2024/03/31 07:45:15;;;;;;;9.37;2.77;;;23.20;76.40;;;;;;5079136;28;20183;-72
2024/03/31 07:47:42;;;;;;;6.13;3.40;;;23.10;76.70;;;;;;5082462;28;20353;-73
2024/03/31 07:50:09;;;;;;;6.30;3.10;;;23.10;77.40;;;;;;5080326;28;20229;-72
2024/03/31 07:52:38;;;;;;;4.77;2.87;;;23.00;77.70;;;;;;5080259;28;20191;-72
2024/03/31 07:55:07;;;;;;;3.60;2.50;;;22.90;78.20;;;;;;5078083;28;20215;-73
2024/03/31 07:57:34;;;;;;;6.57;2.83;;;22.90;78.50;;;;;;5081202;28;20256;-73
2024/03/31 08:00:02;;;;;;;3.57;2.37;;;22.90;78.90;;;;;;5078366;28;20245;-72
2024/03/31 08:02:30;;;;;;;6.87;2.83;;;22.80;79.30;;;;;;5081651;28;20187;-71
2024/03/31 08:04:57;;;;;;;6.07;2.83;;;22.80;79.50;;;;;;5081138;28;20185;-73
2024/03/31 08:07:24;;;;;;;8.13;3.40;;;22.80;79.40;;;;;;5076191;28;20179;-73
2024/03/31 08:09:52;;;;;;;5.97;3.43;;;22.80;79.20;;;;;;5076782;28;20258;-72
2024/03/31 08:12:19;;;;;;;6.17;3.07;;;22.80;79.40;;;;;;5079371;28;20178;-73
2024/03/31 08:14:47;;;;;;;7.13;3.67;;;22.70;79.60;;;;;;5079058;28;20216;-72
2024/03/31 08:17:15;;;;;;;6.67;3.57;;;22.70;79.90;;;;;;5079633;28;20182;-72
2024/03/31 08:19:43;;;;;;;6.83;4.13;;;22.70;80.10;;;;;;5075683;28;20179;-73
2024/03/31 08:22:10;;;;;;;5.70;4.03;;;22.70;80.30;;;;;;5054244;28;20186;-72
2024/03/31 08:24:37;;;;;;;8.23;3.80;;;22.70;80.40;;;;;;5072494;28;20288;-73
2024/03/31 08:27:05;;;;;;;11.30;5.13;;;22.60;80.50;;;;;;5076609;28;20179;-71
2024/03/31 08:29:32;;;;;;;10.03;5.20;;;22.60;80.60;;;;;;5079448;28;20262;-73
2024/03/31 08:31:59;;;;;;;6.90;6.17;;;22.60;81.00;;;;;;5079536;28;20206;-73
2024/03/31 08:34:27;;;;;;;8.23;7.23;;;22.50;81.10;;;;;;5079258;28;20190;-72
2024/03/31 08:36:57;;;;;;;8.73;7.90;;;22.50;81.20;;;;;;5077158;28;20214;-74
2024/03/31 08:39:25;;;;;;;11.63;10.53;;;22.40;81.40;;;;;;5077665;28;20689;-73
2024/03/31 08:42:21;;;;;;;13.93;12.63;;;22.40;81.90;;;;;;5075013;28;20647;-73
2024/03/31 08:44:53;;;;;;;17.47;15.73;;;22.40;82.10;;;;;;5078687;28;20297;-72
2024/03/31 08:47:33;;;;;;;19.60;18.10;;;22.40;82.30;;;;;;5073774;28;20229;-73
2024/03/31 08:50:00;;;;;;;21.03;19.03;;;22.30;82.50;;;;;;5076232;28;20231;-72
2024/03/31 08:52:28;;;;;;;21.07;19.37;;;22.30;82.80;;;;;;5082520;28;20604;-74
2024/03/31 08:54:57;;;;;;;22.10;20.40;;;22.30;82.80;;;;;;5079138;28;20214;-73
2024/03/31 08:57:25;;;;;;;24.50;22.87;;;22.30;82.90;;;;;;5077421;28;20187;-74
2024/03/31 08:59:52;;;;;;;23.77;22.10;;;22.30;83.00;;;;;;5073933;28;20187;-74
2024/03/31 09:02:28;;;;;;;27.87;26.00;;;22.30;83.00;;;;;;5075402;28;20210;-73
2024/03/31 09:04:55;;;;;;;26.47;24.53;;;22.30;83.10;;;;;;5079063;28;20186;-73
2024/03/31 09:07:22;;;;;;;29.37;27.33;;;22.30;83.10;;;;;;5082324;28;20718;-73
2024/03/31 09:09:50;;;;;;;28.50;26.73;;;22.30;83.30;;;;;;5077760;28;20194;-74
2024/03/31 09:12:18;;;;;;;29.70;27.60;;;22.30;83.10;;;;;;5073402;28;20270;-73
2024/03/31 09:14:45;;;;;;;29.83;27.70;;;22.20;83.20;;;;;;5077734;28;20211;-73
2024/03/31 09:17:14;;;;;;;32.10;29.80;;;22.20;83.40;;;;;;5072235;28;20313;-73
2024/03/31 09:19:42;;;;;;;35.27;32.93;;;22.30;83.60;;;;;;5074891;28;20183;-72
2024/03/31 09:22:13;;;;;;;38.90;36.50;;;22.20;83.90;;;;;;5079623;28;20183;-71
2024/03/31 09:24:44;;;;;;;36.70;34.40;;;22.30;84.40;;;;;;5078908;28;20602;-72
2024/03/31 09:27:11;;;;;;;38.47;36.10;;;22.30;84.70;;;;;;5078218;28;20323;-72
2024/03/31 09:29:43;;;;;;;39.67;36.70;;;22.30;85.00;;;;;;5076341;28;20630;-72
2024/03/31 09:32:16;;;;;;;43.70;40.80;;;22.20;85.10;;;;;;5074633;28;20190;-73
2024/03/31 09:34:51;;;;;;;42.17;39.57;;;22.20;85.20;;;;;;5078187;28;21022;-73
2024/03/31 09:37:18;;;;;;;42.53;39.73;;;22.20;85.40;;;;;;5076499;28;20182;-72
2024/03/31 09:39:45;;;;;;;43.93;41.20;;;22.10;85.50;;;;;;5079982;28;20352;-73
2024/03/31 09:42:13;;;;;;;41.73;39.23;;;22.20;85.60;;;;;;5076495;28;20185;-72
2024/03/31 09:44:46;;;;;;;41.00;38.30;;;22.10;85.60;;;;;;5078609;28;20548;-73
2024/03/31 09:47:25;;;;;;;42.93;40.13;;;22.10;85.60;;;;;;5075794;28;20665;-72
2024/03/31 09:50:35;;;;;;;44.80;42.17;;;22.10;85.60;;;;;;5072348;28;20316;-74
2024/03/31 09:53:04;;;;;;;44.50;41.47;;;22.10;85.80;;;;;;5081308;28;20179;-72
2024/03/31 09:55:39;;;;;;;47.70;44.67;;;22.10;86.10;;;;;;5079943;28;20361;-73
2024/03/31 09:58:14;;;;;;;49.23;46.43;;;22.10;86.30;;;;;;5071169;28;20650;-72
2024/03/31 10:00:46;;;;;;;51.60;48.50;;;22.10;86.60;;;;;;5082845;28;20237;-73
2024/03/31 10:03:28;;;;;;;59.20;55.73;;;22.10;86.90;;;;;;5074754;28;20175;-72
2024/03/31 10:05:57;;;;;;;60.50;56.77;;;22.10;87.00;;;;;;5082526;28;20190;-71
2024/03/31 10:08:29;;;;;;;59.13;55.60;;;22.10;87.20;;;;;;5069293;28;20630;-74
2024/03/31 10:10:58;;;;;;;64.10;60.30;;;22.00;87.40;;;;;;5081123;28;20179;-74
2024/03/31 10:13:30;;;;;;;68.93;64.77;;;22.10;87.60;;;;;;5072192;28;20175;-74
2024/03/31 10:15:58;;;;;;;79.57;75.10;;;22.00;87.80;;;;;;5074572;28;20231;-73
2024/03/31 10:18:26;;;;;;;79.07;74.67;;;22.00;88.00;;;;;;5072656;28;20183;-75
2024/03/31 10:20:55;;;;;;;80.87;76.40;;;22.00;88.10;;;;;;5078915;28;20190;-72
2024/03/31 10:23:25;;;;;;;88.60;83.27;;;22.00;88.20;;;;;;5074601;28;20660;-72
2024/03/31 10:25:53;;;;;;;91.13;86.03;;;22.00;88.30;;;;;;5074566;28;20187;-71
2024/03/31 10:28:22;;;;;;;90.60;85.47;;;21.90;88.30;;;;;;5072733;28;20179;-73
2024/03/31 10:30:50;;;;;;;95.90;90.67;;;21.90;88.30;;;;;;5077570;28;20190;-73
2024/03/31 10:33:19;;;;;;;94.87;89.57;;;21.90;88.40;;;;;;5074199;28;20225;-73
2024/03/31 10:35:46;;;;;;;99.53;93.80;;;21.80;88.40;;;;;;5078919;28;20207;-73
2024/03/31 10:38:14;;;;;;;99.07;93.70;;;21.80;88.50;;;;;;5074692;28;20214;-72
2024/03/31 10:40:41;;;;;;;100.23;94.90;;;21.80;88.50;;;;;;5080790;28;20183;-74
2024/03/31 10:43:09;;;;;;;99.60;94.20;;;21.80;88.60;;;;;;5071973;28;20529;-73
2024/03/31 10:45:38;;;;;;;97.33;91.57;;;21.80;88.70;;;;;;5078783;28;20206;-73
2024/03/31 10:48:07;;;;;;;104.50;98.57;;;21.80;88.80;;;;;;5070884;28;20274;-72
2024/03/31 10:50:41;;;;;;;107.20;101.00;;;21.80;88.70;;;;;;5094867;28;20171;-72
2024/03/31 10:53:09;;;;;;;110.03;103.93;;;21.80;88.80;;;;;;5071499;28;20187;-73
2024/03/31 10:55:41;;;;;;;111.10;104.90;;;21.80;88.80;;;;;;5078927;28;20680;-72
2024/03/31 10:58:14;;;;;;;112.73;106.43;;;21.80;89.00;;;;;;5070351;28;20607;-72
2024/03/31 11:00:44;;;;;;;112.20;105.90;;;21.80;88.90;;;;;;5081872;28;20543;-72
2024/03/31 11:03:11;;;;;;;114.87;108.80;;;21.80;89.00;;;;;;5081616;28;20225;-72
2024/03/31 11:05:39;;;;;;;113.33;107.23;;;21.80;89.20;;;;;;5079240;28;20171;-72
2024/03/31 11:08:09;;;;;;;119.37;112.53;;;21.80;89.20;;;;;;5081497;28;20191;-74
2024/03/31 11:10:40;;;;;;;111.60;105.47;;;21.80;89.20;;;;;;5081853;28;20660;-73
2024/03/31 11:13:08;;;;;;;123.53;116.97;;;21.80;89.30;;;;;;5077166;28;20186;-73
2024/03/31 11:15:37;;;;;;;121.40;114.87;;;21.70;89.20;;;;;;5079781;28;20215;-73
2024/03/31 11:18:05;;;;;;;128.50;121.73;;;21.70;89.30;;;;;;5077562;28;20201;-73
2024/03/31 11:20:32;;;;;;;131.10;124.03;;;21.70;89.40;;;;;;5080177;28;20191;-74
2024/03/31 11:23:00;;;;;;;129.63;122.57;;;21.60;89.40;;;;;;5086561;28;20198;-74
2024/03/31 11:25:28;;;;;;;128.53;121.50;;;21.60;89.40;;;;;;5082602;28;20206;-72
2024/03/31 11:27:56;;;;;;;139.03;131.63;;;21.60;89.50;;;;;;5085860;28;20194;-72
2024/03/31 11:30:24;;;;;;;142.00;134.47;;;21.60;89.60;;;;;;5085862;28;20294;-73
2024/03/31 11:32:52;;;;;;;147.93;140.23;;;21.60;89.60;;;;;;5083942;28;20190;-73
2024/03/31 11:35:21;;;;;;;151.63;143.17;;;21.60;89.70;;;;;;5082047;28;20237;-72
2024/03/31 11:37:49;;;;;;;159.07;150.93;;;21.60;89.70;;;;;;5080711;28;20179;-72
2024/03/31 11:40:17;;;;;;;161.33;152.90;;;21.60;89.80;;;;;;5084549;28;20649;-73
2024/03/31 11:42:45;;;;;;;166.27;157.40;;;21.60;89.80;;;;;;5087414;28;20191;-73
2024/03/31 11:45:15;;;;;;;164.90;156.20;;;21.50;89.80;;;;;;5078493;28;20209;-72
2024/03/31 11:47:42;;;;;;;166.97;157.63;;;21.50;89.80;;;;;;5081180;28;20183;-72
2024/03/31 11:50:10;;;;;;;167.83;159.03;;;21.60;89.90;;;;;;5080973;28;20654;-73
2024/03/31 11:52:37;;;;;;;164.00;155.40;;;21.60;89.90;;;;;;5084528;28;20258;-73
2024/03/31 11:55:05;;;;;;;170.30;161.17;;;21.60;89.80;;;;;;5079325;28;20746;-73
2024/03/31 11:57:32;;;;;;;180.50;171.00;;;21.50;89.80;;;;;;5083595;28;20204;-73
2024/03/31 11:59:59;;;;;;;180.40;170.83;;;21.50;89.90;;;;;;5087926;28;20544;-72
2024/03/31 12:02:27;;;;;;;180.97;171.87;;;21.50;89.80;;;;;;5083904;28;20211;-71
2024/03/31 12:04:54;;;;;;;170.23;161.40;;;21.50;89.80;;;;;;5079844;28;20218;-72
2024/03/31 12:07:22;;;;;;;182.63;173.20;;;21.30;89.90;;;;;;5084378;28;20179;-73
2024/03/31 12:09:50;;;;;;;184.83;175.43;;;21.30;90.00;;;;;;5087704;28;20255;-72
2024/03/31 12:12:18;;;;;;;186.80;177.03;;;21.30;90.10;;;;;;5080951;28;20555;-71
2024/03/31 12:14:46;;;;;;;175.23;165.70;;;21.30;90.00;;;;;;5078831;28;20179;-72
2024/03/31 12:17:14;;;;;;;194.77;184.70;;;21.20;90.20;;;;;;5081195;28;20603;-71
2024/03/31 12:19:41;;;;;;;206.00;195.10;;;21.20;90.30;;;;;;5078351;28;20187;-71
2024/03/31 12:22:10;;;;;;;211.03;200.40;;;21.20;90.50;;;;;;5082306;28;20190;-72
2024/03/31 12:24:38;;;;;;;213.33;202.60;;;21.20;90.50;;;;;;5083379;28;20709;-73
2024/03/31 12:27:06;;;;;;;211.47;200.57;;;21.10;90.50;;;;;;5060802;28;20176;-73
2024/03/31 12:29:41;;;;;;;208.17;197.70;;;21.00;90.40;;;;;;5085024;28;20171;-73
2024/03/31 12:32:09;;;;;;;210.93;200.13;;;21.00;90.50;;;;;;5081057;28;20203;-73
2024/03/31 12:34:39;;;;;;;199.05;188.30;;;20.90;90.60;;;;;;5084755;28;20201;-71
2024/03/31 12:37:07;;;;;;;219.50;208.33;;;20.80;90.70;;;;;;5079861;28;20212;-71
2024/03/31 12:39:34;;;;;;;213.27;202.60;;;20.80;90.80;;;;;;5074117;28;20223;-73
2024/03/31 12:42:02;;;;;;;210.90;200.33;;;20.80;90.90;;;;;;5082611;28;20186;-74
2024/03/31 12:44:30;;;;;;;203.17;192.47;;;20.80;91.00;;;;;;5075386;28;20179;-71